createdAt,value
2018-10-09T00:00:58.781Z,101728.95
2018-10-09T00:02:04.293Z,101731.52
2018-10-09T00:03:09.759Z,101737.47
2018-10-09T00:04:15.313Z,101735.78
2018-10-09T00:05:20.765Z,101739.20
2018-10-09T00:06:26.311Z,101744.75
2018-10-09T00:07:31.750Z,101735.81
2018-10-09T00:08:37.280Z,101731.95
2018-10-09T00:09:42.965Z,101733.66
2018-10-09T00:10:48.380Z,101733.23
2018-10-09T00:11:53.916Z,101733.23
2018-10-09T00:12:59.529Z,101739.19
2018-10-09T00:14:05.314Z,101734.50
2018-10-09T00:15:10.839Z,101747.29
2018-10-09T00:16:16.544Z,101737.47
2018-10-09T00:17:22.049Z,101740.45
2018-10-09T00:18:27.511Z,101737.50
2018-10-09T00:19:32.969Z,101735.37
2018-10-09T00:20:38.479Z,101738.77
2018-10-09T00:21:43.942Z,101738.78
2018-10-09T00:22:49.537Z,101730.27
2018-10-09T00:23:55.008Z,101733.25
2018-10-09T00:25:00.389Z,101733.66
2018-10-09T00:26:05.912Z,101733.22
2018-10-09T00:27:11.325Z,101731.54
2018-10-09T00:28:17.031Z,101731.11
2018-10-09T00:29:22.537Z,101731.54
2018-10-09T00:30:28.157Z,101732.38
2018-10-09T00:31:33.617Z,101731.95
2018-10-09T00:32:39.792Z,101728.11
2018-10-09T00:33:45.350Z,101732.83
2018-10-09T00:34:50.932Z,101734.10
2018-10-09T00:35:56.376Z,101732.82
2018-10-09T00:37:01.898Z,101737.94
2018-10-09T00:38:07.624Z,101742.60
2018-10-09T00:39:13.234Z,101739.22
2018-10-09T00:40:18.789Z,101746.91
2018-10-09T00:41:24.242Z,101743.50
2018-10-09T00:42:29.846Z,101747.75
2018-10-09T00:43:35.302Z,101745.66
2018-10-09T00:44:40.840Z,101745.21
2018-10-09T00:45:46.445Z,101737.56
2018-10-09T00:46:52.230Z,101748.20
2018-10-09T00:47:57.766Z,101747.77
2018-10-09T00:49:03.226Z,101742.23
2018-10-09T00:50:09.277Z,101740.11
2018-10-09T00:51:14.862Z,101736.70
2018-10-09T00:52:20.313Z,101740.52
2018-10-09T00:53:25.832Z,101739.23
2018-10-09T00:54:31.268Z,101737.56
2018-10-09T00:55:36.768Z,101733.70
2018-10-09T00:56:42.344Z,101725.19
2018-10-09T00:57:47.945Z,101730.31
2018-10-09T00:58:53.663Z,101729.44
2018-10-09T00:59:59.261Z,101725.17
2018-10-09T01:01:04.793Z,101729.00
2018-10-09T01:02:10.344Z,101734.55
2018-10-09T01:03:15.847Z,101730.72
2018-10-09T01:04:21.374Z,101735.82
2018-10-09T01:05:26.995Z,101751.59
2018-10-09T01:06:32.465Z,101743.50
2018-10-09T01:07:38.172Z,101746.02
2018-10-09T01:08:43.663Z,101742.66
2018-10-09T01:09:49.195Z,101741.78
2018-10-09T01:10:54.664Z,101741.38
2018-10-09T01:12:00.332Z,101737.53
2018-10-09T01:13:05.788Z,101739.69
2018-10-09T01:14:11.278Z,101746.47
2018-10-09T01:15:16.835Z,101740.93
2018-10-09T01:16:22.305Z,101745.64
2018-10-09T01:17:27.801Z,101746.05
2018-10-09T01:18:33.326Z,101743.92
2018-10-09T01:19:38.872Z,101742.22
2018-10-09T01:20:44.466Z,101734.98
2018-10-09T01:21:49.911Z,101739.66
2018-10-09T01:22:55.452Z,101732.42
2018-10-09T01:24:00.936Z,101734.13
2018-10-09T01:25:06.469Z,101737.53
2018-10-09T01:26:12.055Z,101731.58
2018-10-09T01:27:17.608Z,101741.80
2018-10-09T01:28:23.126Z,101744.34
2018-10-09T01:29:28.637Z,101748.63
2018-10-09T01:30:34.746Z,101743.54
2018-10-09T01:31:40.188Z,101744.80
2018-10-09T01:32:45.738Z,101745.22
2018-10-09T01:33:51.204Z,101738.41
2018-10-09T01:34:56.645Z,101736.28
2018-10-09T01:36:02.248Z,101729.48
2018-10-09T01:37:07.888Z,101725.64
2018-10-09T01:38:13.365Z,101728.20
2018-10-09T01:39:18.881Z,101723.52
2018-10-09T01:40:24.446Z,101727.34
2018-10-09T01:41:29.909Z,101721.38
2018-10-09T01:42:35.441Z,101717.55
2018-10-09T01:43:40.927Z,101717.56
2018-10-09T01:44:46.378Z,101718.84
2018-10-09T01:45:51.942Z,101720.12
2018-10-09T01:46:57.685Z,101717.98
2018-10-09T01:48:03.093Z,101717.55
2018-10-09T01:49:08.654Z,101717.14
2018-10-09T01:50:14.282Z,101715.84
2018-10-09T01:51:19.904Z,101713.29
2018-10-09T01:52:25.393Z,101712.88
2018-10-09T01:53:30.976Z,101706.47
2018-10-09T01:54:36.426Z,101710.73
2018-10-09T01:55:41.869Z,101703.94
2018-10-09T01:56:47.293Z,101706.47
2018-10-09T01:57:52.714Z,101708.16
2018-10-09T01:58:58.224Z,101707.75
2018-10-09T02:00:04.066Z,101701.37
2018-10-09T02:01:09.569Z,101702.64
2018-10-09T02:02:15.175Z,101692.86
2018-10-09T02:03:20.622Z,101690.73
2018-10-09T02:04:26.044Z,101687.77
2018-10-09T02:05:31.514Z,101688.17
2018-10-09T02:06:36.971Z,101686.49
2018-10-09T02:07:42.519Z,101684.78
2018-10-09T02:08:47.980Z,101683.93
2018-10-09T02:09:53.489Z,101682.21
2018-10-09T02:10:58.933Z,101682.65
2018-10-09T02:12:04.341Z,101681.81
2018-10-09T02:13:09.890Z,101676.27
2018-10-09T02:14:15.377Z,101677.98
2018-10-09T02:15:20.824Z,101674.14
2018-10-09T02:16:26.278Z,101671.17
2018-10-09T02:17:31.734Z,101670.30
2018-10-09T02:18:37.165Z,101672.02
2018-10-09T02:19:43.029Z,101665.22
2018-10-09T02:20:48.552Z,101663.52
2018-10-09T02:21:53.954Z,101666.06
2018-10-09T02:22:59.492Z,101665.20
2018-10-09T02:24:05.174Z,101667.78
2018-10-09T02:25:10.714Z,101668.61
2018-10-09T02:26:16.520Z,101669.05
2018-10-09T02:27:22.065Z,101663.09
2018-10-09T02:28:27.572Z,101658.83
2018-10-09T02:29:33.000Z,101663.51
2018-10-09T02:30:38.638Z,101660.11
2018-10-09T02:31:44.250Z,101656.27
2018-10-09T02:32:49.700Z,101659.67
2018-10-09T02:33:55.196Z,101663.94
2018-10-09T02:35:00.601Z,101672.44
2018-10-09T02:36:06.197Z,101665.22
2018-10-09T02:37:11.737Z,101663.92
2018-10-09T02:38:17.194Z,101662.22
2018-10-09T02:39:22.757Z,101659.25
2018-10-09T02:40:28.186Z,101653.30
2018-10-09T02:41:33.617Z,101657.13
2018-10-09T02:42:39.202Z,101657.97
2018-10-09T02:43:44.668Z,101658.83
2018-10-09T02:44:50.422Z,101647.77
2018-10-09T02:45:55.860Z,101659.23
2018-10-09T02:47:01.363Z,101662.23
2018-10-09T02:48:06.998Z,101656.25
2018-10-09T02:49:12.468Z,101655.81
2018-10-09T02:50:17.965Z,101658.83
2018-10-09T02:51:23.635Z,101659.23
2018-10-09T02:52:29.116Z,101661.79
2018-10-09T02:53:34.563Z,101666.46
2018-10-09T02:54:40.051Z,101664.34
2018-10-09T02:55:45.553Z,101672.88
2018-10-09T02:56:51.038Z,101668.61
2018-10-09T02:57:56.666Z,101669.89
2018-10-09T02:59:02.193Z,101668.18
2018-10-09T03:00:07.894Z,101665.62
2018-10-09T03:01:13.410Z,101660.95
2018-10-09T03:02:18.838Z,101666.89
2018-10-09T03:03:24.335Z,101667.33
2018-10-09T03:04:29.921Z,101669.88
2018-10-09T03:05:35.362Z,101672.00
2018-10-09T03:06:40.890Z,101673.28
2018-10-09T03:07:46.385Z,101673.71
2018-10-09T03:08:51.806Z,101673.72
2018-10-09T03:09:57.253Z,101675.43
2018-10-09T03:11:02.912Z,101670.31
2018-10-09T03:12:08.636Z,101674.99
2018-10-09T03:13:14.093Z,101673.30
2018-10-09T03:14:19.621Z,101665.66
2018-10-09T03:15:25.149Z,101672.44
2018-10-09T03:16:30.576Z,101669.89
2018-10-09T03:17:36.009Z,101668.20
2018-10-09T03:18:41.674Z,101664.36
2018-10-09T03:19:47.429Z,101660.56
2018-10-09T03:20:52.935Z,101663.09
2018-10-09T03:21:58.409Z,101663.09
2018-10-09T03:23:03.859Z,101667.33
2018-10-09T03:24:09.421Z,101668.20
2018-10-09T03:25:14.847Z,101669.91
2018-10-09T03:26:20.427Z,101672.02
2018-10-09T03:27:25.912Z,101670.31
2018-10-09T03:28:31.516Z,101674.15
2018-10-09T03:29:37.042Z,101665.21
2018-10-09T03:30:42.577Z,101669.91
2018-10-09T03:31:48.052Z,101666.93
2018-10-09T03:32:53.509Z,101670.33
2018-10-09T03:33:58.917Z,101672.88
2018-10-09T03:35:04.454Z,101673.72
2018-10-09T03:36:09.942Z,101675.84
2018-10-09T03:37:15.626Z,101673.73
2018-10-09T03:38:21.026Z,101675.86
2018-10-09T03:39:26.472Z,101670.34
2018-10-09T03:40:32.113Z,101682.26
2018-10-09T03:41:37.635Z,101680.13
2018-10-09T03:42:43.158Z,101681.81
2018-10-09T03:43:48.644Z,101683.09
2018-10-09T03:44:54.120Z,101683.51
2018-10-09T03:45:59.653Z,101674.14
2018-10-09T03:47:05.133Z,101671.19
2018-10-09T03:48:10.546Z,101670.75
2018-10-09T03:49:16.078Z,101676.29
2018-10-09T03:50:21.574Z,101673.73
2018-10-09T03:51:27.028Z,101672.03
2018-10-09T03:52:32.590Z,101672.86
2018-10-09T03:53:38.064Z,101673.74
2018-10-09T03:54:43.722Z,101670.75
2018-10-09T03:55:49.329Z,101673.72
2018-10-09T03:56:54.761Z,101674.59
2018-10-09T03:58:00.497Z,101676.28
2018-10-09T03:59:06.157Z,101675.85
2018-10-09T04:00:11.769Z,101674.58
2018-10-09T04:01:17.213Z,101677.56
2018-10-09T04:02:22.765Z,101666.93
2018-10-09T04:03:28.259Z,101672.88
2018-10-09T04:04:33.898Z,101668.64
2018-10-09T04:05:39.460Z,101674.59
2018-10-09T04:06:44.970Z,101672.05
2018-10-09T04:07:50.516Z,101677.56
2018-10-09T04:08:56.030Z,101672.02
2018-10-09T04:10:01.469Z,101672.45
2018-10-09T04:11:08.717Z,101669.06
2018-10-09T04:12:14.267Z,101671.59
2018-10-09T04:13:19.740Z,101672.86
2018-10-09T04:14:25.327Z,101672.05
2018-10-09T04:15:30.813Z,101674.60
2018-10-09T04:16:36.287Z,101673.73
2018-10-09T04:17:41.909Z,101671.19
2018-10-09T04:18:47.412Z,101677.98
2018-10-09T04:19:53.441Z,101675.02
2018-10-09T04:20:59.016Z,101669.89
2018-10-09T04:22:04.797Z,101673.73
2018-10-09T04:23:10.191Z,101669.48
2018-10-09T04:24:15.940Z,101669.49
2018-10-09T04:25:21.870Z,101668.63
2018-10-09T04:26:27.449Z,101669.91
2018-10-09T04:27:33.207Z,101672.46
2018-10-09T04:28:39.260Z,101666.92
2018-10-09T04:29:44.764Z,101663.51
2018-10-09T04:30:50.237Z,101669.89
2018-10-09T04:31:55.762Z,101672.88
2018-10-09T04:33:01.276Z,101666.50
2018-10-09T04:34:07.470Z,101667.34
2018-10-09T04:35:13.045Z,101670.33
2018-10-09T04:36:18.645Z,101671.59
2018-10-09T04:37:24.077Z,101671.17
2018-10-09T04:38:29.796Z,101668.19
2018-10-09T04:39:35.441Z,101657.98
2018-10-09T04:40:41.334Z,101668.61
2018-10-09T04:41:46.823Z,101653.72
2018-10-09T04:42:52.529Z,101652.88
2018-10-09T04:43:58.115Z,101657.14
2018-10-09T04:45:03.615Z,101653.72
2018-10-09T04:46:09.148Z,101656.71
2018-10-09T04:47:14.681Z,101664.36
2018-10-09T04:48:20.312Z,101658.85
2018-10-09T04:49:25.821Z,101669.47
2018-10-09T04:50:31.849Z,101669.06
2018-10-09T04:51:37.277Z,101675.02
2018-10-09T04:52:42.741Z,101672.87
2018-10-09T04:53:48.215Z,101677.98
2018-10-09T04:54:53.686Z,101682.23
2018-10-09T04:55:59.384Z,101676.28
2018-10-09T04:57:04.878Z,101679.68
2018-10-09T04:58:10.314Z,101680.53
2018-10-09T04:59:15.733Z,101677.99
2018-10-09T05:00:21.334Z,101677.13
2018-10-09T05:01:26.761Z,101675.44
2018-10-09T05:02:32.276Z,101675.41
2018-10-09T05:03:37.889Z,101670.31
2018-10-09T05:04:43.440Z,101667.34
2018-10-09T05:05:49.050Z,101667.34
2018-10-09T05:06:54.614Z,101671.17
2018-10-09T05:08:00.116Z,101667.34
2018-10-09T05:09:09.765Z,101671.60
2018-10-09T05:10:15.206Z,101672.03
2018-10-09T05:11:20.674Z,101673.31
2018-10-09T05:12:26.152Z,101673.31
2018-10-09T05:13:31.658Z,101676.70
2018-10-09T05:14:37.079Z,101672.47
2018-10-09T05:15:42.758Z,101674.58
2018-10-09T05:16:48.221Z,101669.91
2018-10-09T05:17:53.957Z,101665.66
2018-10-09T05:18:59.692Z,101670.33
2018-10-09T05:20:06.723Z,101664.39
2018-10-09T05:21:12.331Z,101653.73
2018-10-09T05:22:17.809Z,101656.28
2018-10-09T05:23:23.450Z,101661.39
2018-10-09T05:24:28.817Z,101655.88
2018-10-09T05:25:34.362Z,101664.39
2018-10-09T05:26:39.876Z,101661.39
2018-10-09T05:27:45.342Z,101663.52
2018-10-09T05:28:51.051Z,101663.95
2018-10-09T05:29:56.673Z,101665.23
2018-10-09T05:31:02.209Z,101669.47
2018-10-09T05:32:07.673Z,101672.46
2018-10-09T05:33:13.120Z,101672.45
2018-10-09T05:34:18.746Z,101672.45
2018-10-09T05:35:24.263Z,101672.45
2018-10-09T05:36:29.853Z,101668.21
2018-10-09T05:37:35.372Z,101676.30
2018-10-09T05:38:41.028Z,101682.24
2018-10-09T05:39:46.478Z,101680.13
2018-10-09T05:40:51.994Z,101687.34
2018-10-09T05:41:57.520Z,101682.66
2018-10-09T05:43:03.091Z,101689.06
2018-10-09T05:44:08.643Z,101688.19
2018-10-09T05:45:14.065Z,101693.29
2018-10-09T05:46:19.597Z,101698.84
2018-10-09T05:47:25.134Z,101692.05
2018-10-09T05:48:30.633Z,101692.44
2018-10-09T05:49:36.109Z,101692.45
2018-10-09T05:50:41.607Z,101689.06
2018-10-09T05:51:47.152Z,101683.50
2018-10-09T05:52:52.797Z,101689.03
2018-10-09T05:53:58.379Z,101695.02
2018-10-09T05:55:03.829Z,101701.81
2018-10-09T05:56:09.897Z,101699.27
2018-10-09T05:57:15.474Z,101703.94
2018-10-09T05:58:21.024Z,101711.59
2018-10-09T05:59:26.665Z,101707.76
2018-10-09T06:00:32.221Z,101711.19
2018-10-09T06:01:37.757Z,101707.75
2018-10-09T06:02:43.215Z,101705.66
2018-10-09T06:03:48.777Z,101712.01
2018-10-09T06:04:54.330Z,101701.82
2018-10-09T06:05:59.966Z,101698.82
2018-10-09T06:07:05.638Z,101698.42
2018-10-09T06:08:11.106Z,101697.55
2018-10-09T06:09:16.644Z,101699.67
2018-10-09T06:10:22.418Z,101697.13
2018-10-09T06:11:28.113Z,101709.91
2018-10-09T06:12:33.620Z,101706.07
2018-10-09T06:13:39.072Z,101710.30
2018-10-09T06:14:44.709Z,101709.03
2018-10-09T06:15:50.329Z,101709.89
2018-10-09T06:16:55.949Z,101707.77
2018-10-09T06:18:01.410Z,101713.31
2018-10-09T06:19:06.992Z,101714.98
2018-10-09T06:20:12.456Z,101717.56
2018-10-09T06:21:18.021Z,101721.37
2018-10-09T06:22:23.480Z,101721.81
2018-10-09T06:23:28.952Z,101726.92
2018-10-09T06:24:34.420Z,101735.88
2018-10-09T06:25:39.892Z,101734.14
2018-10-09T06:26:45.616Z,101730.74
2018-10-09T06:27:51.293Z,101738.84
2018-10-09T06:28:56.813Z,101738.43
2018-10-09T06:30:02.357Z,101742.23
2018-10-09T06:31:08.518Z,101735.88
2018-10-09T06:32:14.130Z,101735.87
2018-10-09T06:33:19.805Z,101733.33
2018-10-09T06:34:25.332Z,101729.89
2018-10-09T06:35:30.854Z,101729.07
2018-10-09T06:36:36.337Z,101728.20
2018-10-09T06:37:41.835Z,101729.05
2018-10-09T06:38:47.318Z,101730.77
2018-10-09T06:39:52.853Z,101725.23
2018-10-09T06:40:58.313Z,101727.78
2018-10-09T06:42:03.816Z,101732.46
2018-10-09T06:43:09.253Z,101731.19
2018-10-09T06:44:14.814Z,101728.19
2018-10-09T06:45:20.253Z,101726.91
2018-10-09T06:46:25.688Z,101722.67
2018-10-09T06:47:31.355Z,101728.20
2018-10-09T06:48:36.991Z,101736.68
2018-10-09T06:49:42.472Z,101730.31
2018-10-09T06:50:48.245Z,101731.97
2018-10-09T06:51:53.753Z,101745.19
2018-10-09T06:52:59.241Z,101738.77
2018-10-09T06:54:04.847Z,101736.22
2018-10-09T06:55:10.287Z,101735.78
2018-10-09T06:56:15.782Z,101733.23
2018-10-09T06:57:21.356Z,101728.96
2018-10-09T06:58:26.871Z,101738.31
2018-10-09T06:59:32.364Z,101737.00
2018-10-09T07:00:37.836Z,101737.44
2018-10-09T07:01:43.426Z,101745.95
2018-10-09T07:02:48.925Z,101751.47
2018-10-09T07:03:54.480Z,101750.20
2018-10-09T07:04:59.993Z,101751.03
2018-10-09T07:06:05.512Z,101752.72
2018-10-09T07:07:10.978Z,101743.80
2018-10-09T07:08:16.533Z,101756.15
2018-10-09T07:09:22.129Z,101751.87
2018-10-09T07:10:27.716Z,101750.16
2018-10-09T07:11:33.159Z,101751.84
2018-10-09T07:12:38.781Z,101747.16
2018-10-09T07:13:44.379Z,101751.84
2018-10-09T07:14:49.925Z,101752.28
2018-10-09T07:15:55.390Z,101746.76
2018-10-09T07:17:00.892Z,101755.67
2018-10-09T07:18:06.289Z,101759.95
2018-10-09T07:19:11.908Z,101754.84
2018-10-09T07:20:17.479Z,101764.59
2018-10-09T07:21:23.006Z,101768.83
2018-10-09T07:22:28.738Z,101774.38
2018-10-09T07:23:34.769Z,101770.98
2018-10-09T07:24:40.230Z,101773.50
2018-10-09T07:25:45.660Z,101775.22
2018-10-09T07:26:51.229Z,101771.81
2018-10-09T07:27:56.733Z,101771.38
2018-10-09T07:29:02.163Z,101780.34
2018-10-09T07:30:09.057Z,101779.45
2018-10-09T07:31:14.597Z,101786.70
2018-10-09T07:32:20.157Z,101785.86
2018-10-09T07:33:25.674Z,101787.17
2018-10-09T07:34:31.173Z,101783.73
2018-10-09T07:35:36.814Z,101785.02
2018-10-09T07:36:42.507Z,101787.13
2018-10-09T07:37:48.040Z,101791.41
2018-10-09T07:38:53.721Z,101791.85
2018-10-09T07:39:59.185Z,101796.53
2018-10-09T07:41:04.666Z,101798.20
2018-10-09T07:42:10.164Z,101802.93
2018-10-09T07:43:15.624Z,101802.13
2018-10-09T07:44:21.188Z,101802.52
2018-10-09T07:45:26.599Z,101806.77
2018-10-09T07:46:32.064Z,101804.21
2018-10-09T07:47:37.530Z,101804.20
2018-10-09T07:48:42.969Z,101807.57
2018-10-09T07:49:48.542Z,101805.45
2018-10-09T07:50:54.038Z,101809.28
2018-10-09T07:51:59.577Z,101807.59
2018-10-09T07:53:05.091Z,101814.39
2018-10-09T07:54:10.616Z,101810.11
2018-10-09T07:55:16.174Z,101811.78
2018-10-09T07:56:21.625Z,101810.01
2018-10-09T07:57:27.153Z,101818.48
2018-10-09T07:58:32.904Z,101817.19
2018-10-09T07:59:38.413Z,101819.34
2018-10-09T08:00:43.937Z,101828.22
2018-10-09T08:01:49.446Z,101831.15
2018-10-09T08:02:54.978Z,101832.42
2018-10-09T08:04:00.495Z,101834.03
2018-10-09T08:05:06.051Z,101833.96
2018-10-09T08:06:11.552Z,101831.38
2018-10-09T08:07:19.631Z,101826.19
2018-10-09T08:08:25.330Z,101832.08
2018-10-09T08:09:30.838Z,101829.05
2018-10-09T08:10:36.446Z,101828.20
2018-10-09T08:11:41.817Z,101832.89
2018-10-09T08:12:47.374Z,101831.62
2018-10-09T08:13:52.908Z,101831.14
2018-10-09T08:14:58.449Z,101830.61
2018-10-09T08:16:03.962Z,101830.56
2018-10-09T08:17:09.486Z,101824.89
2018-10-09T08:18:14.994Z,101820.53
2018-10-09T08:19:20.481Z,101818.32
2018-10-09T08:20:26.080Z,101819.09
2018-10-09T08:21:31.609Z,101822.07
2018-10-09T08:22:37.259Z,101824.16
2018-10-09T08:23:42.732Z,101827.52
2018-10-09T08:24:48.481Z,101826.26
2018-10-09T08:25:54.057Z,101827.49
2018-10-09T08:26:59.578Z,101825.75
2018-10-09T08:28:05.123Z,101830.43
2018-10-09T08:29:10.585Z,101828.23
2018-10-09T08:30:16.118Z,101831.98
2018-10-09T08:31:21.954Z,101826.84
2018-10-09T08:32:27.450Z,101825.55
2018-10-09T08:33:33.077Z,101830.65
2018-10-09T08:34:38.722Z,101830.57
2018-10-09T08:35:44.193Z,101827.95
2018-10-09T08:36:49.717Z,101828.67
2018-10-09T08:37:55.221Z,101829.92
2018-10-09T08:39:00.756Z,101834.11
2018-10-09T08:40:07.141Z,101835.41
2018-10-09T08:41:12.641Z,101830.63
2018-10-09T08:42:18.170Z,101833.91
2018-10-09T08:43:23.626Z,101837.23
2018-10-09T08:44:29.125Z,101841.38
2018-10-09T08:45:34.610Z,101841.16
2018-10-09T08:46:40.147Z,101829.98
2018-10-09T08:47:45.665Z,101833.75
2018-10-09T08:48:51.089Z,101833.66
2018-10-09T08:49:56.761Z,101830.20
2018-10-09T08:51:02.229Z,101833.09
2018-10-09T08:52:07.739Z,101831.20
2018-10-09T08:53:13.777Z,101831.48
2018-10-09T08:54:19.317Z,101831.29
2018-10-09T08:55:24.926Z,101833.30
2018-10-09T08:56:30.754Z,101834.86
2018-10-09T08:57:36.220Z,101835.09
2018-10-09T08:58:41.733Z,101839.16
2018-10-09T08:59:47.219Z,101835.56
2018-10-09T09:00:52.777Z,101840.05
2018-10-09T09:01:58.360Z,101842.58
2018-10-09T09:03:03.824Z,101842.82
2018-10-09T09:04:09.329Z,101840.09
2018-10-09T09:05:14.769Z,101845.52
2018-10-09T09:06:20.317Z,101839.78
2018-10-09T09:07:25.772Z,101840.20
2018-10-09T09:08:31.316Z,101839.89
2018-10-09T09:09:36.741Z,101835.38
2018-10-09T09:10:42.256Z,101843.97
2018-10-09T09:11:47.844Z,101839.30
2018-10-09T09:12:53.313Z,101834.77
2018-10-09T09:13:58.831Z,101836.31
2018-10-09T09:15:04.402Z,101836.19
2018-10-09T09:16:09.977Z,101839.75
2018-10-09T09:17:15.637Z,101833.20
2018-10-09T09:18:21.247Z,101835.55
2018-10-09T09:19:26.871Z,101831.83
2018-10-09T09:20:32.374Z,101830.69
2018-10-09T09:21:37.874Z,101837.25
2018-10-09T09:22:43.574Z,101834.42
2018-10-09T09:23:49.145Z,101832.00
2018-10-09T09:24:54.684Z,101831.75
2018-10-09T09:26:00.238Z,101833.39
2018-10-09T09:27:05.886Z,101826.91
2018-10-09T09:28:11.421Z,101828.13
2018-10-09T09:29:16.992Z,101830.71
2018-10-09T09:30:22.569Z,101826.27
2018-10-09T09:31:28.478Z,101828.72
2018-10-09T09:32:34.024Z,101826.68
2018-10-09T09:33:39.476Z,101830.00
2018-10-09T09:34:45.056Z,101832.34
2018-10-09T09:35:50.673Z,101830.44
2018-10-09T09:36:56.212Z,101833.27
2018-10-09T09:38:01.650Z,101834.81
2018-10-09T09:39:09.551Z,101828.73
2018-10-09T09:40:15.008Z,101822.88
2018-10-09T09:41:20.797Z,101822.20
2018-10-09T09:42:26.274Z,101822.63
2018-10-09T09:43:31.778Z,101822.13
2018-10-09T09:44:37.281Z,101819.33
2018-10-09T09:45:42.950Z,101823.72
2018-10-09T09:46:48.466Z,101819.31
2018-10-09T09:47:53.987Z,101811.14
2018-10-09T09:48:59.470Z,101815.20
2018-10-09T09:50:05.280Z,101819.12
2018-10-09T09:51:10.733Z,101821.02
2018-10-09T09:52:16.433Z,101819.06
2018-10-09T09:53:21.909Z,101822.75
2018-10-09T09:54:27.334Z,101823.34
2018-10-09T09:55:32.772Z,101818.80
2018-10-09T09:56:38.274Z,101821.48
2018-10-09T09:57:44.005Z,101825.86
2018-10-09T09:58:49.892Z,101826.37
2018-10-09T09:59:55.196Z,101828.82
2018-10-09T10:01:05.862Z,101831.62
2018-10-09T10:02:11.394Z,101830.61
2018-10-09T10:03:16.878Z,101833.86
2018-10-09T10:04:22.445Z,101827.27
2018-10-09T10:05:28.043Z,101824.35
2018-10-09T10:06:33.585Z,101822.64
2018-10-09T10:07:39.145Z,101823.30
2018-10-09T10:08:44.845Z,101829.48
2018-10-09T10:09:50.401Z,101825.23
2018-10-09T10:10:55.889Z,101825.78
2018-10-09T10:12:01.441Z,101828.28
2018-10-09T10:13:06.970Z,101828.36
2018-10-09T10:14:12.688Z,101835.03
2018-10-09T10:15:18.534Z,101834.39
2018-10-09T10:16:24.249Z,101833.20
2018-10-09T10:17:29.681Z,101835.56
2018-10-09T10:18:35.319Z,101831.58
2018-10-09T10:19:41.014Z,101834.36
2018-10-09T10:20:46.554Z,101835.06
2018-10-09T10:21:52.153Z,101833.20
2018-10-09T10:22:57.595Z,101832.94
2018-10-09T10:24:03.094Z,101836.96
2018-10-09T10:25:08.703Z,101837.19
2018-10-09T10:26:14.335Z,101837.16
2018-10-09T10:27:19.836Z,101840.30
2018-10-09T10:28:25.305Z,101839.05
2018-10-09T10:29:30.832Z,101840.94
2018-10-09T10:30:36.370Z,101838.16
2018-10-09T10:31:41.837Z,101833.02
2018-10-09T10:32:47.523Z,101831.72
2018-10-09T10:33:53.049Z,101833.76
2018-10-09T10:34:58.583Z,101837.25
2018-10-09T10:36:04.042Z,101833.67
2018-10-09T10:37:09.481Z,101832.92
2018-10-09T10:38:15.107Z,101830.80
2018-10-09T10:39:22.034Z,101835.05
2018-10-09T10:40:27.473Z,101833.29
2018-10-09T10:41:33.041Z,101831.50
2018-10-09T10:42:38.504Z,101830.70
2018-10-09T10:43:44.287Z,101832.94
2018-10-09T10:44:49.973Z,101835.53
2018-10-09T10:45:55.441Z,101832.67
2018-10-09T10:47:00.952Z,101832.05
2018-10-09T10:48:06.869Z,101836.48
2018-10-09T10:49:13.822Z,101835.94
2018-10-09T10:50:19.370Z,101830.70
2018-10-09T10:51:24.840Z,101833.45
2018-10-09T10:52:30.320Z,101828.83
2018-10-09T10:53:35.860Z,101827.02
2018-10-09T10:54:41.397Z,101826.50
2018-10-09T10:55:46.814Z,101823.19
2018-10-09T10:56:52.281Z,101820.42
2018-10-09T10:57:57.818Z,101817.98
2018-10-09T10:59:03.439Z,101814.34
2018-10-09T11:00:08.973Z,101814.45
2018-10-09T11:01:14.540Z,101813.27
2018-10-09T11:02:20.055Z,101812.13
2018-10-09T11:03:25.525Z,101811.05
2018-10-09T11:04:31.015Z,101808.66
2018-10-09T11:05:36.689Z,101812.59
2018-10-09T11:06:42.290Z,101811.91
2018-10-09T11:07:47.991Z,101812.13
2018-10-09T11:08:53.486Z,101809.67
2018-10-09T11:09:59.009Z,101808.11
2018-10-09T11:11:04.550Z,101814.95
2018-10-09T11:12:10.146Z,101810.66
2018-10-09T11:13:15.721Z,101804.48
2018-10-09T11:14:21.194Z,101812.70
2018-10-09T11:15:26.678Z,101813.71
2018-10-09T11:16:32.260Z,101810.02
2018-10-09T11:17:37.915Z,101810.92
2018-10-09T11:18:43.392Z,101804.10
2018-10-09T11:19:48.868Z,101802.69
2018-10-09T11:20:54.363Z,101802.87
2018-10-09T11:21:59.884Z,101805.92
2018-10-09T11:23:05.402Z,101805.20
2018-10-09T11:24:10.876Z,101806.27
2018-10-09T11:25:16.417Z,101804.18
2018-10-09T11:26:21.898Z,101804.99
2018-10-09T11:27:27.618Z,101808.08
2018-10-09T11:28:33.148Z,101806.58
2018-10-09T11:29:39.183Z,101807.16
2018-10-09T11:30:44.659Z,101801.59
2018-10-09T11:31:50.349Z,101800.88
2018-10-09T11:32:55.749Z,101802.69
2018-10-09T11:34:01.202Z,101801.97
2018-10-09T11:35:06.766Z,101798.97
2018-10-09T11:36:12.307Z,101797.87
2018-10-09T11:37:17.801Z,101795.73
2018-10-09T11:38:23.317Z,101791.44
2018-10-09T11:39:28.790Z,101797.55
2018-10-09T11:40:34.248Z,101796.40
2018-10-09T11:41:39.777Z,101791.77
2018-10-09T11:42:45.349Z,101787.22
2018-10-09T11:43:50.911Z,101785.33
2018-10-09T11:44:56.400Z,101787.75
2018-10-09T11:46:01.900Z,101790.45
2018-10-09T11:47:07.593Z,101784.23
2018-10-09T11:48:13.190Z,101790.26
2018-10-09T11:49:18.771Z,101782.47
2018-10-09T11:50:24.218Z,101786.30
2018-10-09T11:51:29.725Z,101788.19
2018-10-09T11:52:35.277Z,101782.23
2018-10-09T11:53:40.719Z,101780.34
2018-10-09T11:54:46.344Z,101781.83
2018-10-09T11:55:51.835Z,101780.01
2018-10-09T11:56:57.256Z,101785.92
2018-10-09T11:58:02.737Z,101775.67
2018-10-09T11:59:08.395Z,101777.48
2018-10-09T12:00:13.805Z,101770.88
2018-10-09T12:01:19.376Z,101773.33
2018-10-09T12:02:24.837Z,101774.24
2018-10-09T12:03:30.412Z,101774.67
2018-10-09T12:04:36.253Z,101771.56
2018-10-09T12:05:41.776Z,101773.49
2018-10-09T12:06:47.301Z,101772.25
2018-10-09T12:07:52.986Z,101767.58
2018-10-09T12:08:58.489Z,101769.86
2018-10-09T12:10:04.001Z,101769.83
2018-10-09T12:11:09.576Z,101766.13
2018-10-09T12:12:15.150Z,101770.49
2018-10-09T12:13:20.633Z,101766.91
2018-10-09T12:14:26.057Z,101771.73
2018-10-09T12:15:31.592Z,101765.33
2018-10-09T12:16:37.129Z,101769.08
2018-10-09T12:17:42.589Z,101769.16
2018-10-09T12:18:48.092Z,101769.28
2018-10-09T12:19:53.648Z,101763.05
2018-10-09T12:20:59.213Z,101767.38
2018-10-09T12:22:04.673Z,101767.06
2018-10-09T12:23:10.145Z,101761.26
2018-10-09T12:24:15.601Z,101760.89
2018-10-09T12:25:21.181Z,101757.67
2018-10-09T12:26:26.652Z,101757.84
2018-10-09T12:27:32.160Z,101755.71
2018-10-09T12:28:37.696Z,101754.78